Terminal Aerodrome Forecast
Issued by NWS Twin Cities, MN

Home | Current Version | Previous Version | Text Only | Print | Product List | Glossary Off
Versions: 1 2 3 4 5 6 7 8 9 10 11 12 13 14 15 16 17 18 19 20 21 22 23 24 25 26 27 28 29 30

000
FTUS43 KMPX 190700 AAA
TAFMSP
TAF AMD
KMSP 190723Z 1907/2012 14005KT P6SM FEW015 OVC070
     FM191000 14005KT P6SM SCT015 OVC035
     FM191300 16004KT P6SM SCT015 OVC030
     FM191800 16006KT P6SM OVC030=

USA.gov is the U.S. government's official web portal to all federal, state and local government web resources and services.